createdAt,value
2017-12-27T00:04:57.967Z,8.98
2017-12-27T00:07:32.711Z,7.00
2017-12-27T00:10:07.150Z,10.13
2017-12-27T00:12:42.611Z,6.25
2017-12-27T00:15:17.162Z,8.57
2017-12-27T00:17:52.246Z,8.23
2017-12-27T00:20:26.873Z,6.87
2017-12-27T00:23:03.008Z,7.03
2017-12-27T00:25:36.833Z,10.27
2017-12-27T00:28:10.637Z,7.15
2017-12-27T00:30:45.273Z,9.25
2017-12-27T00:33:14.181Z,10.07
2017-12-27T00:35:42.295Z,7.40
2017-12-27T00:38:10.436Z,9.32
2017-12-27T00:40:38.554Z,10.20
2017-12-27T00:43:06.678Z,8.65
2017-12-27T00:45:34.791Z,5.97
2017-12-27T00:48:02.921Z,8.00
2017-12-27T00:50:31.095Z,6.78
2017-12-27T00:52:59.985Z,6.20
2017-12-27T00:55:29.446Z,7.93
2017-12-27T00:57:58.845Z,4.85
2017-12-27T01:00:28.499Z,5.20
2017-12-27T01:02:57.382Z,5.65
2017-12-27T01:05:26.283Z,5.53
2017-12-27T01:07:55.148Z,4.25
2017-12-27T01:10:24.044Z,5.40
2017-12-27T01:12:52.234Z,5.10
2017-12-27T01:15:20.404Z,6.10
2017-12-27T01:17:49.842Z,5.12
2017-12-27T01:20:17.878Z,5.37
2017-12-27T01:22:46.053Z,7.07
2017-12-27T01:25:14.915Z,4.68
2017-12-27T01:27:44.381Z,4.82
2017-12-27T01:30:12.419Z,7.72
2017-12-27T01:32:40.561Z,4.97
2017-12-27T01:35:08.761Z,5.12
2017-12-27T01:37:36.933Z,5.50
2017-12-27T01:40:06.385Z,5.30
2017-12-27T01:42:34.507Z,6.00
2017-12-27T01:45:03.397Z,4.37
2017-12-27T01:47:32.285Z,4.03
2017-12-27T01:50:00.409Z,4.37
2017-12-27T01:52:28.521Z,4.35
2017-12-27T01:54:56.730Z,5.95
2017-12-27T01:57:24.878Z,5.20
2017-12-27T01:59:53.889Z,5.12
2017-12-27T02:02:22.047Z,5.03
2017-12-27T02:04:50.915Z,4.60
2017-12-27T02:07:19.106Z,6.47
2017-12-27T02:09:47.960Z,5.80
2017-12-27T02:12:17.502Z,6.17
2017-12-27T02:14:45.493Z,6.53
2017-12-27T02:17:13.640Z,4.65
2017-12-27T02:19:43.093Z,6.40
2017-12-27T02:22:11.138Z,4.05
2017-12-27T02:24:39.285Z,4.20
2017-12-27T02:27:08.276Z,5.03
2017-12-27T02:29:36.451Z,7.05
2017-12-27T02:32:05.341Z,4.90
2017-12-27T02:34:34.214Z,4.45
2017-12-27T02:37:03.243Z,5.30
2017-12-27T02:42:31.312Z,4.60
2017-12-27T02:45:00.205Z,6.28
2017-12-27T02:47:28.311Z,3.28
2017-12-27T02:49:56.447Z,5.43
2017-12-27T02:52:24.620Z,3.83
2017-12-27T02:54:53.509Z,4.85
2017-12-27T02:57:21.622Z,3.75
2017-12-27T02:59:49.857Z,4.28
2017-12-27T03:02:18.730Z,3.50
2017-12-27T03:04:46.854Z,3.90
2017-12-27T03:07:14.996Z,4.30
2017-12-27T03:09:43.876Z,5.93
2017-12-27T03:12:11.973Z,5.10
2017-12-27T03:14:40.123Z,4.50
2017-12-27T03:17:08.219Z,6.20
2017-12-27T03:19:36.365Z,3.47
2017-12-27T03:22:04.538Z,3.00
2017-12-27T03:24:32.655Z,4.90
2017-12-27T03:27:00.891Z,4.22
2017-12-27T03:29:29.750Z,5.53
2017-12-27T03:31:58.667Z,4.87
2017-12-27T03:34:26.774Z,4.85
2017-12-27T03:36:55.014Z,5.72
2017-12-27T03:39:23.868Z,8.70
2017-12-27T03:41:52.793Z,9.63
2017-12-27T03:44:21.690Z,6.10
2017-12-27T03:46:49.857Z,5.50
2017-12-27T03:49:18.747Z,4.10
2017-12-27T03:51:47.636Z,4.35
2017-12-27T03:54:16.514Z,7.28
2017-12-27T03:56:44.699Z,6.68
2017-12-27T03:59:13.691Z,4.50
2017-12-27T04:01:42.558Z,5.10
2017-12-27T04:04:11.429Z,5.03
2017-12-27T04:06:40.360Z,5.90
2017-12-27T04:09:09.249Z,6.45
2017-12-27T04:11:38.139Z,4.07
2017-12-27T04:14:07.030Z,4.87
2017-12-27T04:16:35.891Z,5.40
2017-12-27T04:19:04.777Z,5.00
2017-12-27T04:21:33.658Z,4.85
2017-12-27T04:24:01.781Z,6.32
2017-12-27T04:26:29.902Z,6.43
2017-12-27T04:28:58.046Z,4.75
2017-12-27T04:31:26.157Z,5.82
2017-12-27T04:33:55.033Z,5.20
2017-12-27T04:36:24.003Z,5.32
2017-12-27T04:38:52.095Z,3.80
2017-12-27T04:41:20.213Z,4.70
2017-12-27T04:43:48.333Z,4.50
2017-12-27T04:46:16.462Z,4.45
2017-12-27T04:48:44.570Z,6.00
2017-12-27T04:51:12.690Z,4.35
2017-12-27T04:53:40.820Z,4.45
2017-12-27T04:56:08.968Z,4.97
2017-12-27T04:58:37.106Z,5.75
2017-12-27T05:01:05.220Z,4.93
2017-12-27T05:03:33.459Z,5.07
2017-12-27T05:06:02.356Z,6.75
2017-12-27T05:08:30.524Z,6.93
2017-12-27T05:10:58.614Z,5.80
2017-12-27T05:13:26.766Z,4.65
2017-12-27T05:15:55.655Z,3.92
2017-12-27T05:18:23.830Z,4.37
2017-12-27T05:20:52.723Z,4.68
2017-12-27T05:23:21.607Z,4.57
2017-12-27T05:25:50.628Z,4.60
2017-12-27T05:28:18.773Z,5.00
2017-12-27T05:30:46.901Z,5.57
2017-12-27T05:33:15.119Z,5.07
2017-12-27T05:35:44.007Z,3.25
2017-12-27T05:38:12.900Z,3.58
2017-12-27T05:40:41.789Z,5.72
2017-12-27T05:43:09.962Z,3.97
2017-12-27T05:45:38.900Z,4.70
2017-12-27T05:48:07.129Z,4.20
2017-12-27T05:50:36.017Z,4.05
2017-12-27T05:53:04.907Z,3.78
2017-12-27T05:55:33.796Z,4.28
2017-12-27T05:58:02.657Z,5.95
2017-12-27T06:00:31.566Z,4.00
2017-12-27T06:02:59.679Z,5.68
2017-12-27T06:05:27.820Z,4.15
2017-12-27T06:07:56.917Z,4.68
2017-12-27T06:10:25.775Z,5.00
2017-12-27T06:12:54.862Z,4.30
2017-12-27T06:15:23.075Z,4.30
2017-12-27T06:17:51.965Z,4.30
2017-12-27T06:20:20.854Z,4.15
2017-12-27T06:22:48.945Z,3.97
2017-12-27T06:25:17.099Z,4.45
2017-12-27T06:27:45.378Z,3.92
2017-12-27T06:30:13.476Z,5.45
2017-12-27T06:32:41.597Z,4.70
2017-12-27T06:35:09.796Z,4.57
2017-12-27T06:37:37.960Z,4.47
2017-12-27T06:40:06.827Z,5.22
2017-12-27T06:42:36.299Z,4.68
2017-12-27T06:45:04.530Z,5.25
2017-12-27T06:47:32.704Z,4.37
2017-12-27T06:50:01.594Z,5.10
2017-12-27T06:52:29.703Z,4.12
2017-12-27T06:54:57.941Z,5.43
2017-12-27T06:57:26.043Z,4.35
2017-12-27T06:59:54.289Z,5.87
2017-12-27T07:02:22.416Z,4.37
2017-12-27T07:04:51.287Z,4.72
2017-12-27T07:07:19.518Z,4.40
2017-12-27T07:09:48.408Z,5.15
2017-12-27T07:12:17.297Z,4.97
2017-12-27T07:14:45.437Z,5.37
2017-12-27T07:17:14.359Z,5.80
2017-12-27T07:19:43.232Z,6.30
2017-12-27T07:22:12.139Z,6.03
2017-12-27T07:24:41.029Z,7.07
2017-12-27T07:27:09.899Z,5.93
2017-12-27T07:29:38.095Z,7.78
2017-12-27T07:32:06.266Z,7.80
2017-12-27T07:34:35.127Z,4.87
2017-12-27T07:37:04.041Z,6.35
2017-12-27T07:39:32.894Z,6.72
2017-12-27T07:42:01.021Z,8.20
2017-12-27T07:44:29.134Z,6.12
2017-12-27T07:46:57.252Z,5.85
2017-12-27T07:49:25.374Z,7.15
2017-12-27T07:51:53.494Z,6.20
2017-12-27T07:54:21.627Z,6.87
2017-12-27T07:56:49.846Z,6.93
2017-12-27T07:59:17.952Z,5.87
2017-12-27T08:01:46.077Z,5.87
2017-12-27T08:04:14.257Z,6.12
2017-12-27T08:06:43.146Z,8.57
2017-12-27T08:09:11.249Z,6.62
2017-12-27T08:11:39.491Z,7.53
2017-12-27T08:14:08.345Z,8.02
2017-12-27T08:16:37.249Z,7.37
2017-12-27T08:19:05.443Z,6.78
2017-12-27T08:21:34.372Z,8.90
2017-12-27T08:24:02.511Z,7.65
2017-12-27T08:26:30.640Z,8.23
2017-12-27T08:28:58.852Z,8.18
2017-12-27T08:31:27.847Z,7.40
2017-12-27T08:33:56.737Z,11.52
2017-12-27T08:36:24.830Z,8.57
2017-12-27T08:38:52.978Z,7.95
2017-12-27T08:41:21.900Z,13.68
2017-12-27T08:43:50.041Z,8.35
2017-12-27T08:46:18.931Z,9.05
2017-12-27T08:48:47.034Z,9.00
2017-12-27T08:51:15.181Z,11.10
2017-12-27T08:53:43.349Z,9.27
2017-12-27T08:56:12.200Z,8.10
2017-12-27T08:58:41.096Z,7.70
2017-12-27T09:01:10.022Z,8.53
2017-12-27T09:03:38.292Z,7.35
2017-12-27T09:06:06.467Z,8.43
2017-12-27T09:08:35.357Z,8.57
2017-12-27T09:11:03.460Z,10.43
2017-12-27T09:13:31.705Z,11.82
2017-12-27T09:16:00.595Z,9.35
2017-12-27T09:18:29.454Z,10.73
2017-12-27T09:20:58.343Z,11.35
2017-12-27T09:23:27.233Z,14.23
2017-12-27T09:25:56.114Z,10.13
2017-12-27T09:28:25.044Z,11.88
2017-12-27T09:30:54.004Z,13.93
2017-12-27T09:33:22.894Z,10.15
2017-12-27T09:35:51.816Z,9.35
2017-12-27T09:38:20.706Z,17.80
2017-12-27T09:40:49.576Z,10.73
2017-12-27T09:43:17.739Z,11.12
2017-12-27T09:45:46.662Z,17.35
2017-12-27T09:48:15.524Z,12.05
2017-12-27T09:50:44.437Z,10.88
2017-12-27T09:53:12.619Z,14.18
2017-12-27T09:55:40.709Z,11.27
2017-12-27T09:58:08.961Z,11.07
2017-12-27T10:00:37.069Z,9.57
2017-12-27T10:03:05.313Z,10.85
2017-12-27T10:05:33.483Z,11.00
2017-12-27T10:08:02.370Z,9.30
2017-12-27T10:10:30.484Z,9.97
2017-12-27T10:12:58.615Z,8.25
2017-12-27T10:15:26.738Z,7.57
2017-12-27T10:17:54.854Z,9.40
2017-12-27T10:20:22.998Z,11.63
2017-12-27T10:22:51.921Z,9.15
2017-12-27T10:25:20.841Z,9.77
2017-12-27T10:27:48.981Z,11.25
2017-12-27T10:30:17.874Z,7.43
2017-12-27T10:32:53.826Z,10.05
2017-12-27T10:35:22.009Z,9.98
2017-12-27T10:37:50.167Z,9.90
2017-12-27T10:40:19.039Z,10.00
2017-12-27T10:42:47.932Z,8.07
2017-12-27T10:45:16.844Z,8.90
2017-12-27T10:47:45.734Z,9.50
2017-12-27T10:50:14.726Z,9.85
2017-12-27T10:52:43.600Z,9.80
2017-12-27T10:55:12.506Z,9.25
2017-12-27T10:57:41.373Z,9.43
2017-12-27T11:00:10.346Z,9.63
2017-12-27T11:02:39.234Z,10.10
2017-12-27T11:05:08.169Z,11.25
2017-12-27T11:07:37.093Z,8.48
2017-12-27T11:10:05.229Z,10.57
2017-12-27T11:12:34.118Z,11.23
2017-12-27T11:15:02.246Z,10.77
2017-12-27T11:17:30.467Z,9.95
2017-12-27T11:19:59.355Z,9.52
2017-12-27T11:22:28.244Z,8.30
2017-12-27T11:24:56.379Z,9.65
2017-12-27T11:27:24.598Z,9.05
2017-12-27T11:29:52.768Z,9.75
2017-12-27T11:32:21.645Z,11.60
2017-12-27T11:34:49.787Z,10.10
2017-12-27T11:37:17.983Z,12.40
2017-12-27T11:39:46.914Z,10.48
2017-12-27T11:42:15.029Z,14.70
2017-12-27T11:44:43.916Z,8.95
2017-12-27T11:47:12.849Z,7.97
2017-12-27T11:49:40.960Z,7.95
2017-12-27T11:52:09.108Z,10.18
2017-12-27T11:54:37.264Z,10.13
2017-12-27T11:57:05.383Z,11.07
2017-12-27T11:59:34.319Z,12.37
2017-12-27T12:02:04.286Z,10.07
2017-12-27T12:04:33.949Z,11.20
2017-12-27T12:07:02.090Z,10.20
2017-12-27T12:09:30.977Z,10.43
2017-12-27T12:11:59.901Z,10.60
2017-12-27T12:14:28.184Z,7.40
2017-12-27T12:16:56.302Z,11.45
2017-12-27T12:19:24.438Z,11.15
2017-12-27T12:21:52.567Z,8.80
2017-12-27T12:24:21.481Z,9.30
2017-12-27T12:26:50.345Z,7.50
2017-12-27T12:29:19.262Z,7.72
2017-12-27T12:31:47.355Z,7.95
2017-12-27T12:34:15.608Z,8.50
2017-12-27T12:36:44.527Z,9.65
2017-12-27T12:39:12.623Z,10.50
2017-12-27T12:41:40.774Z,11.30
2017-12-27T12:44:09.229Z,10.13
2017-12-27T12:46:37.408Z,11.75
2017-12-27T12:49:05.567Z,10.65
2017-12-27T12:51:34.458Z,9.02
2017-12-27T12:54:03.343Z,9.65
2017-12-27T12:56:31.514Z,9.45
2017-12-27T12:58:59.717Z,10.60
2017-12-27T13:01:27.878Z,10.47
2017-12-27T13:03:55.992Z,10.43
2017-12-27T13:06:24.895Z,16.52
2017-12-27T13:08:53.829Z,9.43
2017-12-27T13:11:21.940Z,10.60
2017-12-27T13:13:50.059Z,11.27
2017-12-27T13:16:18.233Z,10.65
2017-12-27T13:18:47.124Z,13.50
2017-12-27T13:21:15.305Z,8.82
2017-12-27T13:23:43.432Z,11.18
2017-12-27T13:26:11.572Z,10.23
2017-12-27T13:28:40.952Z,10.50
2017-12-27T13:31:09.320Z,8.65
2017-12-27T13:33:38.206Z,8.60
2017-12-27T13:36:07.084Z,11.07
2017-12-27T13:38:35.987Z,9.93
2017-12-27T13:41:04.877Z,10.43
2017-12-27T13:43:32.984Z,11.85
2017-12-27T13:46:01.153Z,11.55
2017-12-27T13:48:29.293Z,14.27
2017-12-27T13:50:57.426Z,9.55
2017-12-27T13:53:25.643Z,12.45
2017-12-27T13:55:54.524Z,20.10
2017-12-27T13:58:22.678Z,13.62
2017-12-27T14:00:51.703Z,13.97
2017-12-27T14:03:19.872Z,20.20
2017-12-27T14:05:48.765Z,12.52
2017-12-27T14:08:16.932Z,18.25
2017-12-27T14:10:45.887Z,12.57
2017-12-27T14:13:14.818Z,11.60
2017-12-27T14:15:43.707Z,15.50
2017-12-27T14:18:11.879Z,12.40
2017-12-27T14:20:40.771Z,11.23
2017-12-27T14:23:08.892Z,12.50
2017-12-27T14:25:38.533Z,10.37
2017-12-27T14:28:06.687Z,12.85
2017-12-27T14:30:34.816Z,13.02
2017-12-27T14:33:03.068Z,11.32
2017-12-27T14:35:31.962Z,11.30
2017-12-27T14:38:00.139Z,13.23
2017-12-27T14:40:28.238Z,10.80
2017-12-27T14:42:56.361Z,12.23
2017-12-27T14:45:24.552Z,11.38
2017-12-27T14:47:53.449Z,10.93
2017-12-27T14:50:21.620Z,18.55
2017-12-27T14:52:49.794Z,10.05
2017-12-27T14:55:17.897Z,13.35
2017-12-27T14:57:46.030Z,10.65
2017-12-27T15:00:14.204Z,10.75
2017-12-27T15:02:42.310Z,11.18
2017-12-27T15:05:10.522Z,14.02
2017-12-27T15:07:39.542Z,8.88
2017-12-27T15:10:07.643Z,10.68
2017-12-27T15:12:35.791Z,9.90
2017-12-27T15:15:03.927Z,11.27
2017-12-27T15:17:32.845Z,15.07
2017-12-27T15:20:01.836Z,16.10
2017-12-27T15:22:30.726Z,24.25
2017-12-27T15:24:59.717Z,12.23
2017-12-27T15:27:28.591Z,17.05
2017-12-27T15:29:57.508Z,11.27
2017-12-27T15:32:25.612Z,8.65
2017-12-27T15:34:53.729Z,11.32
2017-12-27T15:37:21.867Z,10.68
2017-12-27T15:39:49.999Z,15.32
2017-12-27T15:42:18.107Z,11.80
2017-12-27T15:44:46.227Z,12.52
2017-12-27T15:47:14.376Z,17.83
2017-12-27T15:49:43.269Z,16.73
2017-12-27T15:52:12.184Z,23.08
2017-12-27T15:54:40.326Z,14.20
2017-12-27T15:57:09.206Z,10.73
2017-12-27T15:59:38.111Z,12.63
2017-12-27T16:02:07.012Z,12.52
2017-12-27T16:04:35.149Z,10.65
2017-12-27T16:07:03.374Z,12.23
2017-12-27T16:09:31.541Z,12.70
2017-12-27T16:12:00.422Z,11.63
2017-12-27T16:14:29.269Z,9.15
2017-12-27T16:16:57.421Z,11.12
2017-12-27T16:19:25.518Z,12.80
2017-12-27T16:21:53.646Z,13.80
2017-12-27T16:24:21.810Z,11.15
2017-12-27T16:26:50.693Z,10.95
2017-12-27T16:29:18.819Z,14.73
2017-12-27T16:31:46.942Z,9.68
2017-12-27T16:34:15.102Z,12.25
2017-12-27T16:36:43.988Z,13.23
2017-12-27T16:39:12.124Z,14.07
2017-12-27T16:41:40.362Z,14.53
2017-12-27T16:44:08.542Z,12.37
2017-12-27T16:46:36.685Z,15.45
2017-12-27T16:49:04.872Z,13.60
2017-12-27T16:51:33.748Z,15.95
2017-12-27T16:54:01.937Z,15.07
2017-12-27T16:56:30.078Z,11.73
2017-12-27T16:58:59.201Z,15.20
2017-12-27T17:01:27.320Z,15.97
2017-12-27T17:03:55.499Z,15.70
2017-12-27T17:06:23.725Z,10.73
2017-12-27T17:08:52.613Z,12.90
2017-12-27T17:11:20.992Z,10.67
2017-12-27T17:13:49.366Z,11.02
2017-12-27T17:16:18.254Z,11.70
2017-12-27T17:18:46.430Z,12.43
2017-12-27T17:21:14.553Z,12.98
2017-12-27T17:23:42.675Z,10.77
2017-12-27T17:26:10.952Z,13.27
2017-12-27T17:28:39.291Z,14.00
2017-12-27T17:31:08.217Z,12.13
2017-12-27T17:33:37.104Z,12.23
2017-12-27T17:36:05.226Z,10.70
2017-12-27T17:38:33.377Z,11.85
2017-12-27T17:41:01.526Z,12.88
2017-12-27T17:43:29.866Z,12.65
2017-12-27T17:45:57.980Z,10.35
2017-12-27T17:48:30.140Z,13.48
2017-12-27T17:50:58.411Z,10.00
2017-12-27T17:53:27.410Z,10.43
2017-12-27T17:55:55.509Z,9.70
2017-12-27T17:58:23.648Z,11.65
2017-12-27T18:00:52.651Z,12.27
2017-12-27T18:03:20.813Z,18.00
2017-12-27T18:05:49.911Z,16.42
2017-12-27T18:08:19.045Z,14.90
2017-12-27T18:10:47.182Z,10.47
2017-12-27T18:13:16.173Z,10.85
2017-12-27T18:15:44.269Z,11.23
2017-12-27T18:18:12.635Z,12.02
2017-12-27T18:20:40.774Z,13.60
2017-12-27T18:23:09.274Z,11.63
2017-12-27T18:25:37.476Z,11.60
2017-12-27T18:28:05.650Z,11.48
2017-12-27T18:30:33.780Z,10.98
2017-12-27T18:33:01.912Z,13.00
2017-12-27T18:35:30.278Z,10.75
2017-12-27T18:37:58.728Z,9.70
2017-12-27T18:40:27.712Z,12.17
2017-12-27T18:42:55.886Z,10.35
2017-12-27T18:45:24.032Z,8.35
2017-12-27T18:47:52.928Z,11.98
2017-12-27T18:50:21.124Z,10.90
2017-12-27T18:52:49.401Z,10.38
2017-12-27T18:55:17.673Z,10.63
2017-12-27T18:57:46.547Z,9.02
2017-12-27T19:00:14.736Z,9.52
2017-12-27T19:02:42.861Z,10.80
2017-12-27T19:05:11.064Z,9.88
2017-12-27T19:07:39.163Z,10.07
2017-12-27T19:10:07.520Z,12.43
2017-12-27T19:12:35.675Z,9.63
2017-12-27T19:15:04.557Z,13.25
2017-12-27T19:17:33.545Z,9.60
2017-12-27T19:20:01.661Z,8.98
2017-12-27T19:22:29.829Z,9.48
2017-12-27T19:24:59.155Z,9.05
2017-12-27T19:27:27.403Z,11.25
2017-12-27T19:29:55.687Z,8.68
2017-12-27T19:32:23.906Z,8.63
2017-12-27T19:34:52.947Z,8.18
2017-12-27T19:37:21.820Z,7.47
2017-12-27T19:39:50.007Z,9.45
2017-12-27T19:42:18.880Z,10.50
2017-12-27T19:44:47.233Z,8.85
2017-12-27T19:47:15.651Z,8.10
2017-12-27T19:49:43.847Z,10.82
2017-12-27T19:52:12.002Z,7.32
2017-12-27T19:54:40.991Z,8.13
2017-12-27T19:57:10.293Z,10.30
2017-12-27T19:59:38.669Z,11.00
2017-12-27T20:02:07.552Z,7.77
2017-12-27T20:04:36.043Z,9.95
2017-12-27T20:07:05.143Z,5.78
2017-12-27T20:09:33.417Z,7.30
2017-12-27T20:12:01.605Z,6.67
2017-12-27T20:14:29.763Z,5.85
2017-12-27T20:16:57.930Z,6.68
2017-12-27T20:19:27.002Z,5.90
2017-12-27T20:22:05.846Z,7.93
2017-12-27T20:24:35.447Z,6.78
2017-12-27T20:27:03.630Z,7.70
2017-12-27T20:29:31.778Z,7.68
2017-12-27T20:32:00.671Z,5.90
2017-12-27T20:34:29.822Z,5.57
2017-12-27T20:36:58.017Z,8.18
2017-12-27T20:39:26.230Z,8.90
2017-12-27T20:41:54.481Z,8.57
2017-12-27T20:44:23.505Z,9.38
2017-12-27T20:46:51.671Z,8.63
2017-12-27T20:49:20.662Z,5.57
2017-12-27T20:51:49.083Z,7.28
2017-12-27T20:57:10.149Z,5.90
2017-12-27T20:59:39.071Z,4.93
2017-12-27T21:02:07.947Z,5.40
2017-12-27T21:04:36.122Z,5.45
2017-12-27T21:07:04.293Z,4.90
2017-12-27T21:09:33.183Z,6.18
2017-12-27T21:12:05.623Z,5.10
2017-12-27T21:14:34.004Z,5.05
2017-12-27T21:17:03.028Z,4.05
2017-12-27T21:19:32.076Z,6.65
2017-12-27T21:22:00.606Z,5.53
2017-12-27T21:24:29.628Z,4.45
2017-12-27T21:26:57.873Z,4.10
2017-12-27T21:29:26.784Z,4.97
2017-12-27T21:31:55.069Z,5.20
2017-12-27T21:34:23.172Z,4.85
2017-12-27T21:36:52.205Z,6.40
2017-12-27T21:39:21.510Z,4.30
2017-12-27T21:41:49.686Z,4.80
2017-12-27T21:44:18.756Z,5.20
2017-12-27T21:46:46.906Z,3.80
2017-12-27T21:49:21.157Z,3.90
2017-12-27T21:51:49.272Z,3.83
2017-12-27T21:54:18.933Z,3.45
2017-12-27T21:56:47.067Z,3.73
2017-12-27T21:59:20.985Z,3.17
2017-12-27T22:01:49.109Z,3.37
2017-12-27T22:04:17.272Z,3.70
2017-12-27T22:06:45.545Z,2.87
2017-12-27T22:09:13.936Z,4.60
2017-12-27T22:11:42.127Z,3.00
2017-12-27T22:14:10.266Z,3.67
2017-12-27T22:16:38.387Z,3.75
2017-12-27T22:19:06.603Z,3.97
2017-12-27T22:21:36.035Z,3.12
2017-12-27T22:24:04.520Z,3.15
2017-12-27T22:26:32.631Z,3.53
2017-12-27T22:29:01.660Z,3.15
2017-12-27T22:31:29.776Z,4.00
2017-12-27T22:33:57.889Z,3.60
2017-12-27T22:36:26.066Z,3.60
2017-12-27T22:38:54.997Z,4.00
2017-12-27T22:41:23.156Z,4.10
2017-12-27T22:43:51.261Z,3.40
2017-12-27T22:46:19.375Z,2.83
2017-12-27T22:48:47.544Z,2.67
2017-12-27T22:51:16.437Z,2.62
2017-12-27T22:53:45.023Z,2.83
2017-12-27T22:56:13.181Z,2.33
2017-12-27T22:58:42.055Z,2.20
2017-12-27T23:01:10.973Z,1.70
2017-12-27T23:03:39.107Z,1.62
2017-12-27T23:06:07.425Z,1.60
2017-12-27T23:08:35.592Z,1.37
2017-12-27T23:11:04.649Z,1.33
2017-12-27T23:13:33.580Z,1.37
2017-12-27T23:16:01.730Z,1.83
2017-12-27T23:18:30.623Z,1.15
2017-12-27T23:20:58.812Z,1.10
2017-12-27T23:23:27.700Z,1.05
2017-12-27T23:25:56.551Z,1.00
2017-12-27T23:28:25.482Z,1.52
2017-12-27T23:30:54.382Z,1.67
2017-12-27T23:33:22.503Z,1.33
2017-12-27T23:35:50.653Z,1.73
2017-12-27T23:38:18.997Z,1.85
2017-12-27T23:40:47.117Z,1.50
2017-12-27T23:43:15.239Z,1.45
2017-12-27T23:45:43.365Z,1.27
2017-12-27T23:48:12.252Z,2.35
2017-12-27T23:50:41.868Z,1.42
2017-12-27T23:53:10.772Z,1.55
2017-12-27T23:55:39.891Z,1.57
2017-12-27T23:58:08.883Z,1.73
